createdAt,value
2022-12-19T00:02:20.169Z,29.75
2022-12-19T00:04:52.197Z,30.92
2022-12-19T00:07:24.200Z,36.83
2022-12-19T00:09:56.242Z,30.67
2022-12-19T00:12:28.155Z,28.50
2022-12-19T00:15:03.421Z,31.70
2022-12-19T00:17:35.375Z,30.92
2022-12-19T00:20:09.875Z,29.98
2022-12-19T00:22:43.619Z,32.53
2022-12-19T00:25:15.768Z,28.73
2022-12-19T00:27:48.052Z,31.33
2022-12-19T00:30:20.174Z,35.47
2022-12-19T00:32:52.843Z,33.30
2022-12-19T00:35:25.273Z,29.08
2022-12-19T00:37:57.673Z,31.58
2022-12-19T00:40:29.694Z,29.48
2022-12-19T00:43:01.715Z,28.05
2022-12-19T00:45:33.898Z,33.28
2022-12-19T00:48:06.297Z,30.02
2022-12-19T00:50:39.570Z,32.53
2022-12-19T00:53:11.587Z,29.55
2022-12-19T00:55:43.881Z,35.95
2022-12-19T00:58:15.856Z,35.92
2022-12-19T01:00:47.910Z,29.63
2022-12-19T01:03:19.986Z,40.17
2022-12-19T01:05:52.777Z,40.25
2022-12-19T01:08:25.966Z,39.35
2022-12-19T01:11:00.333Z,37.95
2022-12-19T01:13:34.230Z,37.95
2022-12-19T01:16:11.242Z,41.55
2022-12-19T01:18:43.936Z,40.97
2022-12-19T01:21:15.918Z,39.80
2022-12-19T01:23:47.896Z,40.45
2022-12-19T01:26:19.916Z,41.53
2022-12-19T01:28:51.969Z,44.75
2022-12-19T01:31:24.059Z,49.30
2022-12-19T01:33:56.078Z,41.40
2022-12-19T01:36:28.167Z,41.80
2022-12-19T01:39:00.254Z,42.67
2022-12-19T01:41:32.237Z,43.10
2022-12-19T01:44:06.917Z,48.38
2022-12-19T01:46:43.927Z,46.35
2022-12-19T01:49:37.041Z,48.45
2022-12-19T01:52:11.711Z,45.75
2022-12-19T01:54:51.963Z,46.15
2022-12-19T01:57:24.101Z,46.22
2022-12-19T02:00:00.262Z,51.55
2022-12-19T02:02:46.735Z,57.30
2022-12-19T02:05:19.021Z,52.70
2022-12-19T02:07:52.033Z,54.67
2022-12-19T02:10:24.095Z,42.63
2022-12-19T02:12:57.888Z,53.30
2022-12-19T02:15:37.249Z,49.10
2022-12-19T02:18:27.167Z,47.47
2022-12-19T02:21:17.973Z,54.15
2022-12-19T02:24:08.173Z,42.80
2022-12-19T02:26:58.791Z,42.03
2022-12-19T02:32:15.594Z,47.22
2022-12-19T02:34:53.449Z,47.20
2022-12-19T02:37:31.171Z,44.78
2022-12-19T02:40:09.870Z,41.78
2022-12-19T02:42:47.151Z,46.92
2022-12-19T02:45:28.643Z,40.50
2022-12-19T02:48:08.397Z,37.17
2022-12-19T02:50:46.857Z,38.38
2022-12-19T02:53:23.848Z,43.20
2022-12-19T02:56:19.741Z,45.90
2022-12-19T02:59:33.181Z,44.92
2022-12-19T03:02:18.633Z,40.22
2022-12-19T03:05:14.183Z,46.53
2022-12-19T03:08:16.760Z,46.30
2022-12-19T03:11:00.901Z,46.20
2022-12-19T03:13:37.242Z,42.25
2022-12-19T03:16:11.414Z,41.67
2022-12-19T03:18:44.448Z,42.58
2022-12-19T03:21:40.917Z,45.33
2022-12-19T03:24:14.735Z,42.00
2022-12-19T03:26:54.577Z,55.55
2022-12-19T03:29:46.097Z,43.03
2022-12-19T03:32:19.119Z,50.47
2022-12-19T03:35:08.198Z,56.05
2022-12-19T03:37:43.754Z,61.22
2022-12-19T03:40:21.872Z,66.63
2022-12-19T03:43:12.728Z,70.03
2022-12-19T03:46:09.582Z,63.03
2022-12-19T03:48:45.874Z,59.42
2022-12-19T03:51:29.982Z,54.38
2022-12-19T03:54:41.309Z,52.80
2022-12-19T03:57:40.210Z,51.85
2022-12-19T04:00:16.419Z,52.35
2022-12-19T04:02:52.633Z,50.22
2022-12-19T04:05:27.490Z,52.30
2022-12-19T04:08:05.167Z,49.28
2022-12-19T04:10:48.144Z,46.50
2022-12-19T04:13:45.226Z,49.33
2022-12-19T04:16:25.405Z,45.22
2022-12-19T04:19:03.749Z,52.25
2022-12-19T04:21:43.309Z,50.65
2022-12-19T04:24:24.393Z,44.83
2022-12-19T04:26:57.909Z,44.78
2022-12-19T04:29:33.484Z,46.00
2022-12-19T04:32:07.351Z,41.63
2022-12-19T04:34:42.890Z,44.53
2022-12-19T04:37:15.717Z,40.95
2022-12-19T04:39:47.737Z,42.25
2022-12-19T04:42:19.708Z,45.33
2022-12-19T04:44:51.702Z,43.35
2022-12-19T04:47:23.679Z,46.67
2022-12-19T04:49:55.674Z,50.03
2022-12-19T04:52:27.700Z,51.13
2022-12-19T04:54:59.743Z,48.13
2022-12-19T04:57:32.653Z,50.30
2022-12-19T05:00:07.513Z,55.53
2022-12-19T05:02:39.821Z,50.00
2022-12-19T05:05:12.326Z,48.05
2022-12-19T05:07:44.434Z,45.63
2022-12-19T05:10:18.525Z,47.33
2022-12-19T05:12:50.861Z,53.13
2022-12-19T05:15:23.860Z,45.20
2022-12-19T05:17:55.880Z,48.42
2022-12-19T05:20:28.203Z,49.95
2022-12-19T05:23:04.330Z,51.97
2022-12-19T05:25:37.807Z,53.38
2022-12-19T05:28:10.195Z,49.75
2022-12-19T05:30:43.960Z,67.82
2022-12-19T05:33:18.857Z,52.88
2022-12-19T05:35:50.871Z,58.25
2022-12-19T05:38:22.844Z,60.92
2022-12-19T05:40:55.482Z,61.95
2022-12-19T05:43:27.945Z,55.25
2022-12-19T05:45:59.937Z,49.15
2022-12-19T05:48:32.039Z,49.03
2022-12-19T05:51:04.728Z,52.95
2022-12-19T05:53:37.774Z,55.58
2022-12-19T05:56:12.861Z,55.85
2022-12-19T05:58:45.616Z,51.92
2022-12-19T06:01:23.263Z,51.90
2022-12-19T06:03:56.354Z,53.25
2022-12-19T06:06:28.495Z,54.00
2022-12-19T06:09:00.626Z,56.45
2022-12-19T06:11:32.690Z,54.42
2022-12-19T06:14:07.374Z,57.72
2022-12-19T06:16:39.495Z,58.92
2022-12-19T06:19:11.711Z,54.35
2022-12-19T06:21:48.207Z,49.50
2022-12-19T06:24:21.785Z,61.67
2022-12-19T06:26:53.832Z,62.80
2022-12-19T06:29:26.018Z,65.05
2022-12-19T06:31:58.065Z,69.35
2022-12-19T06:35:02.399Z,65.88
2022-12-19T06:37:22.111Z,64.90
2022-12-19T06:39:54.119Z,64.47
2022-12-19T06:42:26.197Z,76.40
2022-12-19T06:44:58.272Z,91.78
2022-12-19T06:47:30.253Z,74.70
2022-12-19T06:50:02.532Z,68.35
2022-12-19T06:52:34.486Z,71.05
2022-12-19T06:55:07.203Z,90.78
2022-12-19T06:57:46.153Z,96.10
2022-12-19T07:00:18.547Z,82.95
2022-12-19T07:02:52.681Z,72.25
2022-12-19T07:05:24.953Z,65.53
2022-12-19T07:07:56.908Z,58.42
2022-12-19T07:10:29.803Z,67.60
2022-12-19T07:13:02.343Z,67.45
2022-12-19T07:15:36.625Z,68.13
2022-12-19T07:18:10.315Z,63.75
2022-12-19T07:20:46.702Z,66.47
2022-12-19T07:23:22.660Z,79.15
2022-12-19T07:25:54.544Z,69.40
2022-12-19T07:28:26.951Z,57.45
2022-12-19T07:30:59.010Z,58.72
2022-12-19T07:33:31.089Z,59.63
2022-12-19T07:36:03.182Z,63.40
2022-12-19T07:38:37.022Z,81.78
2022-12-19T07:41:09.041Z,79.00
2022-12-19T07:43:41.064Z,107.95
2022-12-19T07:46:13.505Z,96.45
2022-12-19T07:48:45.544Z,78.80
2022-12-19T07:51:17.682Z,82.90
2022-12-19T07:53:49.804Z,85.20
2022-12-19T07:56:22.061Z,75.57
2022-12-19T07:58:54.318Z,66.40
2022-12-19T08:01:28.589Z,70.28
2022-12-19T08:04:01.451Z,64.47
2022-12-19T08:06:39.139Z,62.25
2022-12-19T08:09:14.001Z,63.00
2022-12-19T08:11:46.397Z,66.45
2022-12-19T08:14:18.381Z,65.47
2022-12-19T08:17:19.253Z,62.85
2022-12-19T08:19:42.337Z,62.78
2022-12-19T08:22:14.378Z,56.67
2022-12-19T08:24:46.452Z,62.97
2022-12-19T08:27:19.121Z,61.08
2022-12-19T08:29:51.427Z,68.13
2022-12-19T08:32:23.455Z,58.67
2022-12-19T08:34:56.998Z,63.55
2022-12-19T08:37:28.955Z,68.50
2022-12-19T08:40:00.969Z,60.42
2022-12-19T08:42:33.954Z,60.88
2022-12-19T08:45:06.660Z,57.05
2022-12-19T08:47:38.667Z,55.47
2022-12-19T08:50:11.515Z,57.53
2022-12-19T08:52:43.590Z,53.13
2022-12-19T08:55:15.850Z,57.63
2022-12-19T08:57:48.635Z,52.65
2022-12-19T09:00:21.368Z,57.83
2022-12-19T09:02:54.317Z,60.53
2022-12-19T09:06:03.515Z,58.40
2022-12-19T09:08:18.337Z,52.40
2022-12-19T09:10:50.531Z,50.50
2022-12-19T09:13:22.564Z,52.70
2022-12-19T09:16:10.980Z,54.67
2022-12-19T09:18:54.532Z,55.20
2022-12-19T09:21:30.273Z,60.15
2022-12-19T09:24:07.716Z,65.85
2022-12-19T09:26:42.609Z,53.65
2022-12-19T09:29:20.931Z,59.25
2022-12-19T09:31:56.401Z,54.22
2022-12-19T09:34:38.145Z,57.78
2022-12-19T09:37:16.927Z,64.18
2022-12-19T09:39:51.695Z,67.72
2022-12-19T09:42:56.938Z,89.30
2022-12-19T09:45:41.776Z,59.47
2022-12-19T09:48:24.088Z,61.13
2022-12-19T09:51:29.112Z,60.17
2022-12-19T09:54:11.908Z,52.78
2022-12-19T09:56:46.891Z,53.60
2022-12-19T09:59:39.760Z,51.03
2022-12-19T10:02:21.028Z,54.78
2022-12-19T10:05:06.587Z,53.67
2022-12-19T10:08:08.509Z,56.45
2022-12-19T10:12:40.779Z,54.60
2022-12-19T10:14:33.375Z,55.13
2022-12-19T10:17:29.644Z,50.15
2022-12-19T10:20:01.612Z,44.83
2022-12-19T10:22:56.137Z,50.25
2022-12-19T10:25:31.892Z,52.10
2022-12-19T10:28:45.562Z,48.80
2022-12-19T10:31:22.946Z,49.90
2022-12-19T10:34:16.571Z,46.67
2022-12-19T10:39:57.998Z,51.10
2022-12-19T10:42:44.384Z,50.00
2022-12-19T10:45:19.926Z,55.38
2022-12-19T10:47:58.270Z,50.90
2022-12-19T10:50:31.111Z,50.50
2022-12-19T10:53:08.711Z,48.70
2022-12-19T10:55:45.944Z,49.85
2022-12-19T10:58:38.135Z,47.97
2022-12-19T11:01:24.896Z,50.53
2022-12-19T11:04:17.810Z,46.53
2022-12-19T11:07:05.693Z,48.15
2022-12-19T11:09:41.948Z,44.30
2022-12-19T11:16:09.503Z,47.80
2022-12-19T11:19:45.314Z,49.28
2022-12-19T11:24:53.850Z,48.83
2022-12-19T11:29:19.663Z,49.88
2022-12-19T11:29:33.109Z,46.33
2022-12-19T11:30:48.179Z,54.05
2022-12-19T11:33:27.637Z,49.55
2022-12-19T11:36:02.089Z,57.45
2022-12-19T11:38:42.837Z,65.43
2022-12-19T11:41:29.609Z,59.85
2022-12-19T11:44:34.815Z,75.43
2022-12-19T11:47:32.878Z,56.50
2022-12-19T11:50:15.842Z,52.85
2022-12-19T11:53:14.668Z,52.42
2022-12-19T11:55:56.274Z,46.95
2022-12-19T11:58:30.269Z,48.28
2022-12-19T12:01:23.986Z,49.85
2022-12-19T12:04:05.462Z,55.00
2022-12-19T12:06:50.923Z,53.92
2022-12-19T12:12:39.365Z,53.05
2022-12-19T12:21:39.530Z,51.00
2022-12-19T12:28:20.920Z,51.30
2022-12-19T12:31:05.842Z,52.80
2022-12-19T12:31:06.473Z,46.22
2022-12-19T12:31:54.114Z,42.55
2022-12-19T12:32:06.314Z,46.88
2022-12-19T12:35:19.235Z,49.97
2022-12-19T12:38:36.071Z,53.15
2022-12-19T12:41:44.494Z,48.17
2022-12-19T12:44:16.604Z,47.78
2022-12-19T12:47:00.110Z,52.30
2022-12-19T12:49:46.618Z,47.10
2022-12-19T12:52:42.317Z,47.17
2022-12-19T12:55:40.642Z,45.83
2022-12-19T12:58:50.941Z,50.28
2022-12-19T13:01:29.250Z,55.80
2022-12-19T13:04:21.948Z,58.83
2022-12-19T13:06:53.970Z,56.85
2022-12-19T13:09:32.356Z,53.53
2022-12-19T13:12:42.892Z,57.33
2022-12-19T13:15:31.804Z,52.03
2022-12-19T13:18:16.020Z,50.85
2022-12-19T13:20:49.011Z,48.33
2022-12-19T13:23:30.106Z,62.25
2022-12-19T13:26:02.387Z,50.05
2022-12-19T13:28:34.345Z,58.03
2022-12-19T13:31:19.065Z,63.80
2022-12-19T13:33:55.949Z,60.58
2022-12-19T13:39:52.340Z,58.30
2022-12-19T13:40:08.739Z,53.83
2022-12-19T13:43:30.624Z,51.42
2022-12-19T13:46:06.149Z,65.13
2022-12-19T13:48:46.821Z,70.97
2022-12-19T13:51:18.822Z,72.75
2022-12-19T13:53:59.287Z,66.80
2022-12-19T13:56:32.255Z,72.80
2022-12-19T13:59:05.771Z,73.72
2022-12-19T14:01:41.101Z,71.32
2022-12-19T14:04:26.858Z,61.20
2022-12-19T14:07:05.770Z,60.88
2022-12-19T14:11:26.468Z,57.92
2022-12-19T14:13:46.190Z,55.22
2022-12-19T14:15:52.454Z,55.58
2022-12-19T14:18:42.253Z,57.85
2022-12-19T14:22:08.687Z,58.08
2022-12-19T14:24:17.860Z,52.28
2022-12-19T14:28:24.151Z,61.00
2022-12-19T14:30:30.636Z,69.97
2022-12-19T14:33:44.637Z,65.53
2022-12-19T14:36:07.423Z,71.13
2022-12-19T14:39:24.040Z,67.75
2022-12-19T14:42:04.284Z,61.50
2022-12-19T14:53:17.916Z,64.78
2022-12-19T14:53:27.802Z,72.38
2022-12-19T14:54:29.347Z,74.03
2022-12-19T14:54:37.409Z,71.82
2022-12-19T14:59:35.760Z,72.55
2022-12-19T15:02:07.864Z,64.45
2022-12-19T15:04:54.671Z,62.80
2022-12-19T15:07:33.501Z,71.25
2022-12-19T15:11:09.162Z,71.00
2022-12-19T15:14:54.259Z,65.88
2022-12-19T15:16:29.234Z,68.75
2022-12-19T15:19:02.801Z,77.20
2022-12-19T15:21:34.701Z,74.55
2022-12-19T15:24:06.693Z,116.18
2022-12-19T15:26:50.524Z,81.10
2022-12-19T15:29:22.652Z,120.88
2022-12-19T15:31:55.746Z,74.57
2022-12-19T15:34:36.333Z,72.20
2022-12-19T15:37:17.105Z,75.18
2022-12-19T15:39:49.091Z,79.03
2022-12-19T15:42:25.240Z,70.68
2022-12-19T15:45:00.219Z,69.15
2022-12-19T15:47:37.493Z,70.80
2022-12-19T15:50:29.669Z,68.45
2022-12-19T15:53:26.903Z,63.72
2022-12-19T15:56:25.019Z,63.17
2022-12-19T15:58:59.559Z,62.33
2022-12-19T16:01:36.505Z,67.85
2022-12-19T16:04:18.003Z,65.10
2022-12-19T16:06:54.076Z,58.88
2022-12-19T16:09:28.149Z,62.22
2022-12-19T16:12:00.721Z,70.25
2022-12-19T16:14:32.969Z,68.47
2022-12-19T16:17:12.351Z,65.30
2022-12-19T16:19:46.614Z,71.43
2022-12-19T16:22:28.929Z,73.65
2022-12-19T16:25:00.969Z,75.55
2022-12-19T16:27:37.344Z,66.07
2022-12-19T16:30:20.074Z,59.63
2022-12-19T16:32:56.101Z,61.75
2022-12-19T16:36:03.118Z,62.05
2022-12-19T16:38:24.146Z,56.33
2022-12-19T16:41:00.579Z,63.10
2022-12-19T16:43:41.091Z,61.67
2022-12-19T16:48:50.178Z,60.15
2022-12-19T16:51:24.844Z,56.17
2022-12-19T16:54:00.761Z,59.60
2022-12-19T16:56:45.363Z,56.08
2022-12-19T16:59:25.295Z,60.72
2022-12-19T17:01:59.386Z,58.03
2022-12-19T17:04:31.522Z,57.58
2022-12-19T17:07:10.957Z,60.10
2022-12-19T17:09:43.328Z,54.78
2022-12-19T17:12:18.645Z,60.05
2022-12-19T17:14:50.806Z,57.13
2022-12-19T17:17:22.930Z,57.78
2022-12-19T17:19:54.961Z,66.80
2022-12-19T17:22:27.004Z,67.15
2022-12-19T17:24:59.037Z,63.78
2022-12-19T17:27:31.613Z,62.63
2022-12-19T17:30:03.825Z,62.55
2022-12-19T17:32:36.414Z,75.45
2022-12-19T17:35:16.246Z,64.35
2022-12-19T17:37:55.044Z,63.28
2022-12-19T17:40:29.838Z,68.25
2022-12-19T17:43:02.021Z,62.40
2022-12-19T17:45:34.948Z,63.08
2022-12-19T17:48:16.235Z,65.57
2022-12-19T17:50:48.453Z,69.82
2022-12-19T17:53:20.736Z,68.15
2022-12-19T17:55:53.409Z,66.15
2022-12-19T17:58:25.666Z,73.70
2022-12-19T18:00:57.732Z,66.28
2022-12-19T18:03:30.440Z,67.38
2022-12-19T18:06:05.986Z,60.85
2022-12-19T18:08:40.697Z,66.78
2022-12-19T18:11:24.620Z,70.43
2022-12-19T18:13:56.599Z,63.85
2022-12-19T18:16:31.170Z,62.92
2022-12-19T18:19:05.136Z,68.03
2022-12-19T18:21:37.169Z,66.60
2022-12-19T18:24:12.375Z,72.47
2022-12-19T18:26:45.411Z,69.07
2022-12-19T18:29:17.468Z,62.53
2022-12-19T18:31:51.090Z,65.90
2022-12-19T18:34:25.774Z,68.65
2022-12-19T18:36:57.823Z,64.25
2022-12-19T18:39:31.097Z,66.30
2022-12-19T18:42:08.613Z,67.32
2022-12-19T18:44:40.574Z,82.75
2022-12-19T18:47:23.734Z,66.35
2022-12-19T18:49:55.809Z,63.83
2022-12-19T18:52:27.751Z,66.28
2022-12-19T18:54:59.825Z,64.18
2022-12-19T18:57:31.813Z,65.18
2022-12-19T19:00:04.321Z,68.47
2022-12-19T19:02:36.643Z,65.20
2022-12-19T19:05:14.883Z,63.83
2022-12-19T19:07:47.828Z,64.35
2022-12-19T19:10:28.857Z,61.75
2022-12-19T19:13:05.178Z,71.60
2022-12-19T19:15:48.133Z,63.15
2022-12-19T19:18:23.074Z,66.25
2022-12-19T19:21:00.787Z,71.70
2022-12-19T19:23:38.614Z,64.03
2022-12-19T19:26:10.649Z,67.70
2022-12-19T19:28:45.951Z,54.67
2022-12-19T19:31:26.916Z,61.27
2022-12-19T19:34:22.264Z,61.95
2022-12-19T19:36:56.634Z,60.80
2022-12-19T19:39:32.050Z,58.33
2022-12-19T19:42:04.263Z,63.22
2022-12-19T19:44:37.352Z,62.38
2022-12-19T19:47:09.394Z,62.70
2022-12-19T19:49:41.656Z,60.72
2022-12-19T19:52:13.592Z,62.63
2022-12-19T19:54:46.119Z,61.70
2022-12-19T19:57:18.124Z,62.72
2022-12-19T19:59:50.124Z,60.90
2022-12-19T20:02:22.730Z,58.47
2022-12-19T20:04:54.853Z,60.05
2022-12-19T20:07:27.221Z,61.65
2022-12-19T20:09:59.367Z,50.95
2022-12-19T20:12:31.688Z,66.40
2022-12-19T20:15:04.786Z,56.00
2022-12-19T20:17:37.083Z,59.50
2022-12-19T20:20:09.545Z,60.63
2022-12-19T20:22:42.877Z,68.47
2022-12-19T20:25:15.046Z,65.28
2022-12-19T20:27:47.060Z,70.70
2022-12-19T20:30:19.224Z,74.30
2022-12-19T20:32:51.236Z,71.03
2022-12-19T20:35:24.180Z,94.00
2022-12-19T20:37:56.336Z,74.07
2022-12-19T20:40:28.543Z,65.40
2022-12-19T20:43:00.520Z,73.47
2022-12-19T20:45:32.764Z,70.05
2022-12-19T20:48:04.874Z,67.53
2022-12-19T20:50:42.893Z,68.53
2022-12-19T20:53:15.524Z,60.92
2022-12-19T20:55:58.136Z,69.82
2022-12-19T20:58:33.388Z,61.42
2022-12-19T21:01:08.945Z,67.93
2022-12-19T21:03:41.738Z,65.35
2022-12-19T21:06:15.502Z,58.55
2022-12-19T21:08:49.053Z,67.07
2022-12-19T21:11:21.715Z,62.75
2022-12-19T21:13:53.972Z,69.63
2022-12-19T21:16:26.154Z,66.63
2022-12-19T21:18:58.429Z,62.45
2022-12-19T21:21:30.676Z,55.38
2022-12-19T21:24:03.606Z,62.70
2022-12-19T21:26:35.769Z,61.42
2022-12-19T21:29:07.880Z,64.90
2022-12-19T21:31:43.214Z,61.97
2022-12-19T21:34:15.341Z,60.15
2022-12-19T21:36:47.487Z,67.22
2022-12-19T21:39:21.005Z,59.38
2022-12-19T21:41:53.214Z,64.32
2022-12-19T21:44:25.233Z,60.58
2022-12-19T21:46:57.295Z,59.85
2022-12-19T21:49:29.410Z,70.32
2022-12-19T21:52:01.496Z,62.80
2022-12-19T21:54:33.494Z,69.22
2022-12-19T21:57:05.615Z,69.05
2022-12-19T21:59:37.655Z,70.22
2022-12-19T22:02:11.154Z,66.50
2022-12-19T22:04:43.133Z,64.68
2022-12-19T22:07:15.736Z,56.63
2022-12-19T22:09:47.703Z,58.78
2022-12-19T22:12:19.882Z,62.60
2022-12-19T22:14:52.060Z,67.28
2022-12-19T22:17:24.045Z,70.95
2022-12-19T22:19:56.126Z,65.40
2022-12-19T22:22:28.105Z,64.97
2022-12-19T22:25:00.142Z,56.97
2022-12-19T22:27:32.159Z,61.50
2022-12-19T22:30:10.689Z,63.22
2022-12-19T22:32:43.261Z,57.67
2022-12-19T22:35:15.408Z,62.50
2022-12-19T22:37:50.677Z,61.38
2022-12-19T22:40:22.839Z,65.93
2022-12-19T22:42:55.045Z,59.42
2022-12-19T22:45:30.800Z,61.20
2022-12-19T22:48:02.961Z,63.78
2022-12-19T22:50:35.108Z,67.68
2022-12-19T22:53:12.600Z,65.72
2022-12-19T22:55:44.975Z,70.95
2022-12-19T22:58:16.982Z,64.65
2022-12-19T23:00:49.936Z,68.20
2022-12-19T23:03:22.163Z,62.22
2022-12-19T23:05:55.049Z,57.38
2022-12-19T23:08:27.017Z,66.00
2022-12-19T23:10:59.024Z,71.45
2022-12-19T23:13:30.993Z,68.30
2022-12-19T23:16:03.121Z,59.08
2022-12-19T23:18:35.574Z,73.90
2022-12-19T23:21:19.289Z,66.70
2022-12-19T23:23:54.080Z,64.38
2022-12-19T23:26:29.235Z,73.63
2022-12-19T23:29:09.750Z,65.10
2022-12-19T23:31:44.476Z,63.50
2022-12-19T23:34:17.008Z,62.60
2022-12-19T23:39:42.328Z,65.25
2022-12-19T23:42:14.295Z,69.28
2022-12-19T23:44:46.264Z,79.70
2022-12-19T23:47:18.217Z,66.13
2022-12-19T23:49:50.179Z,72.75
2022-12-19T23:52:22.178Z,63.10
2022-12-19T23:54:54.211Z,62.53
2022-12-19T23:57:26.186Z,61.42
2022-12-19T23:59:58.093Z,68.30
